Hauptseite
METAR-TAF:

METAR-TAF

Flughäfen :

Hof, Deutschland

Breite: 50-19N, Länge: 011-53E, Höhe: 567 m

Beobachtung

Neuester Wetterbericht von vor 13 Stunden und 36 Minuten, um 18:50 UTC
Wind 1 kt aus unterschiedlichen Richtungen
Temperatur 3°C
Luftfeuchtigkeit 93%
Luftdruck 1024 hPa
Sichtweite: 5000 m
Durchbrochene Bewölkung in der Höhe von 300 ft
Geschlossene Wolkendecke in der Höhe von 1100 ft
feuchter Dunst

METAR: EDQM 171850Z VRB01KT 5000 BR BKN003 OVC011 03/02 Q1024

Zeit: 09:26 (08:26 UTC)

Prognose

Neuester Wetterbericht von vor 15 Stunden und 26 Minuten, um 17:00 UTC
Gültige Prognose vom 17 um 18 UTC bis 18 um 03 UTC
Wind 3 kt aus unterschiedlichen Richtungen
Sichtweite: 4000 m
Geschlossene Wolkendecke in der Höhe von 200 ft
Sprühregen leicht
Zeitweise
vom 17 um 18 UTC bis 17 um 22 UTC
Sichtweite: 2000 m
Regen, Sprühregen

TAF: EDQM 171700Z 1718/1803 VRB03KT 4000 -DZ OVC002 TEMPO 1718/1722 2000 RADZ

Wetterbeobachtungen und Prognosen von mehr als 4000 Flughäfen (METAR und TAF Bericht).

Die verfügbaren Stationen werden durch gelbe und rote Markierungen auf der Karte dargestellt.

Führen Sie die Maus auf sie, um den Namen der Station zu sehen.

Darauf klicken, um die Beobachtung von Wetterbeobachtungen und Prognosen zu sehen.

Um die Karte zu ändern : klicken Sie auf den grünen Tasten mit einem schwarzen Kreuz Zum Vergrößern, auf den grünen Button mit einem Gedankenstrich zu verkleinern, oder auf die grünen Pfeile für benachbarte Karten.


METAR-TAF: